Search for airport 
image banner adimage banner ad
image banner ad

FQQL - Quelimane / National

Located in Quelimane, Mozambique

ICAO - FQQL, IATA - UEL

Data provided by Airmate  

General information

Coordinates: S17°51'5" E36°52'6"
Elevation is 36 feet MSL.
 
View others Airports in Zambezia Province

Operational data

Open for public use
Current time UTC:
Current local time:
Weather
METAR: FQQL 231000Z 01009KT 9999 SCT018 BKN100 30/25 Q1006
TAF: TAF FQQL 230400Z 2306/2406 06005KT 9999 BKN018 BKN090 TX33/2313Z TN24/2403Z PROB30 TEMPO 2312/2318 5000 -TSRA FEW025CB BECMG 2312/2314 35008KT BECMG 2318/2320 05015G25KT
View NOTAMs / SUP AIP / TFR affecting this airport [VIEW]
Communications frequencies: [VIEW]

Runways:

RWY identifierQFULength (ft)Width (ft)SurfaceLDA (ft)
0985°298098GVL
2700
185906148
365906148

Airport contact information

Address: Quelimane Mozambique

Satellite view of FQQL